sensor_id;sensor_type;location;lat;lon;timestamp;temperature;humidity
569;DHT22;269;48.884;9.192;2023-07-09T00:01:04;24.40;85.40
569;DHT22;269;48.884;9.192;2023-07-09T00:03:32;24.40;85.40
569;DHT22;269;48.884;9.192;2023-07-09T00:05:59;24.40;85.60
569;DHT22;269;48.884;9.192;2023-07-09T00:08:28;24.40;86.20
569;DHT22;269;48.884;9.192;2023-07-09T00:10:57;24.20;86.40
569;DHT22;269;48.884;9.192;2023-07-09T00:13:26;24.20;87.00
569;DHT22;269;48.884;9.192;2023-07-09T00:15:56;24.10;87.40
569;DHT22;269;48.884;9.192;2023-07-09T00:18:24;24.10;88.20
569;DHT22;269;48.884;9.192;2023-07-09T00:20:51;23.90;89.10
569;DHT22;269;48.884;9.192;2023-07-09T00:23:18;23.70;90.10
569;DHT22;269;48.884;9.192;2023-07-09T00:25:46;23.50;90.60
569;DHT22;269;48.884;9.192;2023-07-09T00:28:15;23.40;91.00
569;DHT22;269;48.884;9.192;2023-07-09T00:30:43;23.20;91.40
569;DHT22;269;48.884;9.192;2023-07-09T00:33:12;23.20;91.80
569;DHT22;269;48.884;9.192;2023-07-09T00:35:42;23.10;92.10
569;DHT22;269;48.884;9.192;2023-07-09T00:38:14;23.00;92.40
569;DHT22;269;48.884;9.192;2023-07-09T00:40:47;23.00;92.80
569;DHT22;269;48.884;9.192;2023-07-09T00:43:16;23.00;93.10
569;DHT22;269;48.884;9.192;2023-07-09T00:45:43;22.90;93.50
569;DHT22;269;48.884;9.192;2023-07-09T00:48:14;22.90;93.80
569;DHT22;269;48.884;9.192;2023-07-09T00:50:48;22.90;94.10
569;DHT22;269;48.884;9.192;2023-07-09T00:53:19;22.80;94.40
569;DHT22;269;48.884;9.192;2023-07-09T00:55:51;22.70;94.90
569;DHT22;269;48.884;9.192;2023-07-09T00:58:21;22.60;95.40
569;DHT22;269;48.884;9.192;2023-07-09T01:00:58;22.50;95.90
569;DHT22;269;48.884;9.192;2023-07-09T01:03:30;22.40;96.40
569;DHT22;269;48.884;9.192;2023-07-09T01:05:59;22.40;96.90
569;DHT22;269;48.884;9.192;2023-07-09T01:08:26;22.40;97.30
569;DHT22;269;48.884;9.192;2023-07-09T01:10:57;22.30;97.60
569;DHT22;269;48.884;9.192;2023-07-09T01:13:26;22.30;97.90
569;DHT22;269;48.884;9.192;2023-07-09T01:15:54;22.20;98.40
569;DHT22;269;48.884;9.192;2023-07-09T01:18:22;22.20;98.90
569;DHT22;269;48.884;9.192;2023-07-09T01:20:51;22.10;99.20
569;DHT22;269;48.884;9.192;2023-07-09T01:23:20;22.00;99.60
569;DHT22;269;48.884;9.192;2023-07-09T01:25:51;22.00;99.90
569;DHT22;269;48.884;9.192;2023-07-09T01:28:20;22.00;99.90
569;DHT22;269;48.884;9.192;2023-07-09T01:30:48;22.00;99.90
569;DHT22;269;48.884;9.192;2023-07-09T01:33:20;22.00;99.90
569;DHT22;269;48.884;9.192;2023-07-09T01:35:48;21.90;99.90
569;DHT22;269;48.884;9.192;2023-07-09T01:38:15;21.90;99.90
569;DHT22;269;48.884;9.192;2023-07-09T01:40:43;21.90;99.90
569;DHT22;269;48.884;9.192;2023-07-09T01:43:12;21.90;99.90
569;DHT22;269;48.884;9.192;2023-07-09T01:45:39;21.80;99.90
569;DHT22;269;48.884;9.192;2023-07-09T01:48:07;21.80;99.90
569;DHT22;269;48.884;9.192;2023-07-09T01:50:41;21.80;99.90
569;DHT22;269;48.884;9.192;2023-07-09T01:53:09;21.80;99.90
569;DHT22;269;48.884;9.192;2023-07-09T01:55:37;21.80;99.90
569;DHT22;269;48.884;9.192;2023-07-09T01:58:05;21.70;99.90
569;DHT22;269;48.884;9.192;2023-07-09T02:00:34;21.70;99.90
569;DHT22;269;48.884;9.192;2023-07-09T02:03:01;21.70;99.90
569;DHT22;269;48.884;9.192;2023-07-09T02:05:31;21.70;99.90
569;DHT22;269;48.884;9.192;2023-07-09T02:07:58;21.60;99.90
569;DHT22;269;48.884;9.192;2023-07-09T02:10:25;21.60;99.90
569;DHT22;269;48.884;9.192;2023-07-09T02:12:53;21.60;99.90
569;DHT22;269;48.884;9.192;2023-07-09T02:15:21;21.60;99.90
569;DHT22;269;48.884;9.192;2023-07-09T02:17:48;21.60;99.90
569;DHT22;269;48.884;9.192;2023-07-09T02:20:15;21.60;99.90
569;DHT22;269;48.884;9.192;2023-07-09T02:22:44;21.50;99.90
569;DHT22;269;48.884;9.192;2023-07-09T02:25:11;21.50;99.90
569;DHT22;269;48.884;9.192;2023-07-09T02:27:38;21.40;99.90
569;DHT22;269;48.884;9.192;2023-07-09T02:30:06;21.40;99.90
569;DHT22;269;48.884;9.192;2023-07-09T02:32:35;21.30;99.90
569;DHT22;269;48.884;9.192;2023-07-09T02:35:03;21.30;99.90
569;DHT22;269;48.884;9.192;2023-07-09T02:37:30;21.30;99.90
569;DHT22;269;48.884;9.192;2023-07-09T02:39:57;21.30;99.90
569;DHT22;269;48.884;9.192;2023-07-09T02:42:24;21.30;99.90
569;DHT22;269;48.884;9.192;2023-07-09T02:44:51;21.30;99.90
569;DHT22;269;48.884;9.192;2023-07-09T02:47:18;21.20;99.90
569;DHT22;269;48.884;9.192;2023-07-09T02:49:47;21.20;99.90
569;DHT22;269;48.884;9.192;2023-07-09T02:52:14;21.20;99.90
569;DHT22;269;48.884;9.192;2023-07-09T02:54:41;21.20;99.90
569;DHT22;269;48.884;9.192;2023-07-09T02:57:08;21.10;99.90
569;DHT22;269;48.884;9.192;2023-07-09T02:59:35;21.10;99.90
569;DHT22;269;48.884;9.192;2023-07-09T03:02:03;21.10;99.90
569;DHT22;269;48.884;9.192;2023-07-09T03:04:30;21.00;99.90
569;DHT22;269;48.884;9.192;2023-07-09T03:06:59;21.00;99.90
569;DHT22;269;48.884;9.192;2023-07-09T03:09:26;20.90;99.90
569;DHT22;269;48.884;9.192;2023-07-09T03:11:54;20.90;99.90
569;DHT22;269;48.884;9.192;2023-07-09T03:14:21;20.80;99.90
569;DHT22;269;48.884;9.192;2023-07-09T03:16:48;20.80;99.90
569;DHT22;269;48.884;9.192;2023-07-09T03:19:15;20.80;99.90
569;DHT22;269;48.884;9.192;2023-07-09T03:21:42;20.70;99.90
569;DHT22;269;48.884;9.192;2023-07-09T03:24:11;20.70;99.90
569;DHT22;269;48.884;9.192;2023-07-09T03:26:44;20.60;99.90
569;DHT22;269;48.884;9.192;2023-07-09T03:29:12;20.60;99.90
569;DHT22;269;48.884;9.192;2023-07-09T03:31:39;20.50;99.90
569;DHT22;269;48.884;9.192;2023-07-09T03:34:06;20.40;99.90
569;DHT22;269;48.884;9.192;2023-07-09T03:36:33;20.40;99.90
569;DHT22;269;48.884;9.192;2023-07-09T03:39:02;20.30;99.90
569;DHT22;269;48.884;9.192;2023-07-09T03:41:31;20.30;99.90
569;DHT22;269;48.884;9.192;2023-07-09T03:43:58;20.30;99.90
569;DHT22;269;48.884;9.192;2023-07-09T03:46:25;20.20;99.90
569;DHT22;269;48.884;9.192;2023-07-09T03:48:52;20.20;99.90
569;DHT22;269;48.884;9.192;2023-07-09T03:51:19;20.10;99.90
569;DHT22;269;48.884;9.192;2023-07-09T03:53:46;20.10;99.90
569;DHT22;269;48.884;9.192;2023-07-09T03:56:13;20.10;99.90
569;DHT22;269;48.884;9.192;2023-07-09T03:58:41;20.00;99.90
569;DHT22;269;48.884;9.192;2023-07-09T04:01:08;20.00;99.90
569;DHT22;269;48.884;9.192;2023-07-09T04:03:36;20.00;99.90
569;DHT22;269;48.884;9.192;2023-07-09T04:06:03;19.90;99.90
569;DHT22;269;48.884;9.192;2023-07-09T04:08:30;19.90;99.90
569;DHT22;269;48.884;9.192;2023-07-09T04:11:02;19.80;99.90
569;DHT22;269;48.884;9.192;2023-07-09T04:13:29;19.80;99.90
569;DHT22;269;48.884;9.192;2023-07-09T04:15:57;19.80;99.90
569;DHT22;269;48.884;9.192;2023-07-09T04:18:25;19.80;99.90
569;DHT22;269;48.884;9.192;2023-07-09T04:20:52;19.80;99.90
569;DHT22;269;48.884;9.192;2023-07-09T04:23:20;19.80;99.90
569;DHT22;269;48.884;9.192;2023-07-09T04:25:47;19.80;99.90
569;DHT22;269;48.884;9.192;2023-07-09T04:28:14;19.80;99.90
569;DHT22;269;48.884;9.192;2023-07-09T04:30:46;19.90;99.90
569;DHT22;269;48.884;9.192;2023-07-09T04:33:15;19.90;99.90
569;DHT22;269;48.884;9.192;2023-07-09T04:35:44;19.90;99.90
569;DHT22;269;48.884;9.192;2023-07-09T04:38:12;19.90;99.90
569;DHT22;269;48.884;9.192;2023-07-09T04:40:39;20.00;99.90
569;DHT22;269;48.884;9.192;2023-07-09T04:43:06;20.00;99.90
569;DHT22;269;48.884;9.192;2023-07-09T04:45:33;20.10;99.90
569;DHT22;269;48.884;9.192;2023-07-09T04:48:00;20.10;99.90
569;DHT22;269;48.884;9.192;2023-07-09T04:50:29;20.20;99.90
569;DHT22;269;48.884;9.192;2023-07-09T04:52:56;20.20;99.90
569;DHT22;269;48.884;9.192;2023-07-09T04:55:23;20.20;99.90
569;DHT22;269;48.884;9.192;2023-07-09T04:57:50;20.20;99.90
569;DHT22;269;48.884;9.192;2023-07-09T05:00:18;20.30;99.90
569;DHT22;269;48.884;9.192;2023-07-09T05:02:45;20.40;99.90
569;DHT22;269;48.884;9.192;2023-07-09T05:05:12;20.40;99.90
569;DHT22;269;48.884;9.192;2023-07-09T05:07:41;20.40;99.90
569;DHT22;269;48.884;9.192;2023-07-09T05:10:09;20.50;99.90
569;DHT22;269;48.884;9.192;2023-07-09T05:12:47;20.60;99.90
569;DHT22;269;48.884;9.192;2023-07-09T05:15:16;20.60;99.90
569;DHT22;269;48.884;9.192;2023-07-09T05:17:44;20.70;99.90
569;DHT22;269;48.884;9.192;2023-07-09T05:20:13;20.70;99.90
569;DHT22;269;48.884;9.192;2023-07-09T05:22:42;20.80;99.90
569;DHT22;269;48.884;9.192;2023-07-09T05:25:10;20.90;99.90
569;DHT22;269;48.884;9.192;2023-07-09T05:27:37;20.90;99.90
569;DHT22;269;48.884;9.192;2023-07-09T05:30:06;21.00;99.90
569;DHT22;269;48.884;9.192;2023-07-09T05:32:36;21.10;99.90
569;DHT22;269;48.884;9.192;2023-07-09T05:35:04;21.20;99.90
569;DHT22;269;48.884;9.192;2023-07-09T05:37:31;21.30;99.90
569;DHT22;269;48.884;9.192;2023-07-09T05:40:00;21.40;99.90
569;DHT22;269;48.884;9.192;2023-07-09T05:42:28;21.50;99.90
569;DHT22;269;48.884;9.192;2023-07-09T05:44:55;21.60;99.90
569;DHT22;269;48.884;9.192;2023-07-09T05:47:22;21.70;99.90
569;DHT22;269;48.884;9.192;2023-07-09T05:49:49;21.70;99.90
569;DHT22;269;48.884;9.192;2023-07-09T05:52:16;21.80;99.90
569;DHT22;269;48.884;9.192;2023-07-09T05:54:43;21.90;99.90
569;DHT22;269;48.884;9.192;2023-07-09T05:57:12;22.10;99.90
569;DHT22;269;48.884;9.192;2023-07-09T05:59:39;22.20;99.90
569;DHT22;269;48.884;9.192;2023-07-09T06:02:10;22.20;99.90
569;DHT22;269;48.884;9.192;2023-07-09T06:04:37;22.30;99.90
569;DHT22;269;48.884;9.192;2023-07-09T06:07:04;22.70;99.90
569;DHT22;269;48.884;9.192;2023-07-09T06:09:32;22.50;99.90
569;DHT22;269;48.884;9.192;2023-07-09T06:11:59;22.70;99.90
569;DHT22;269;48.884;9.192;2023-07-09T06:14:28;22.70;99.90
569;DHT22;269;48.884;9.192;2023-07-09T06:16:55;22.80;99.90
569;DHT22;269;48.884;9.192;2023-07-09T06:19:23;22.90;99.90
569;DHT22;269;48.884;9.192;2023-07-09T06:21:50;23.00;99.90
569;DHT22;269;48.884;9.192;2023-07-09T06:24:18;23.10;99.90
569;DHT22;269;48.884;9.192;2023-07-09T06:26:45;23.20;99.90
569;DHT22;269;48.884;9.192;2023-07-09T06:29:12;23.30;99.90
569;DHT22;269;48.884;9.192;2023-07-09T06:31:40;23.50;99.90
569;DHT22;269;48.884;9.192;2023-07-09T06:34:08;23.60;99.90
569;DHT22;269;48.884;9.192;2023-07-09T06:36:36;23.80;99.90
569;DHT22;269;48.884;9.192;2023-07-09T06:39:04;23.90;99.90
569;DHT22;269;48.884;9.192;2023-07-09T06:41:31;24.00;99.90
569;DHT22;269;48.884;9.192;2023-07-09T06:44:05;24.10;99.90
569;DHT22;269;48.884;9.192;2023-07-09T06:46:32;24.20;99.90
569;DHT22;269;48.884;9.192;2023-07-09T06:49:01;24.30;99.90
569;DHT22;269;48.884;9.192;2023-07-09T06:51:28;24.50;99.90
569;DHT22;269;48.884;9.192;2023-07-09T06:53:55;24.70;99.90
569;DHT22;269;48.884;9.192;2023-07-09T06:56:23;24.80;99.90
569;DHT22;269;48.884;9.192;2023-07-09T06:58:51;25.00;99.90
569;DHT22;269;48.884;9.192;2023-07-09T07:01:18;25.10;99.90
569;DHT22;269;48.884;9.192;2023-07-09T07:03:44;25.20;99.90
569;DHT22;269;48.884;9.192;2023-07-09T07:06:13;25.30;99.90
569;DHT22;269;48.884;9.192;2023-07-09T07:08:42;25.40;99.90
569;DHT22;269;48.884;9.192;2023-07-09T07:11:08;25.60;99.90
569;DHT22;269;48.884;9.192;2023-07-09T07:13:37;25.80;99.90
569;DHT22;269;48.884;9.192;2023-07-09T07:16:06;25.90;99.90
569;DHT22;269;48.884;9.192;2023-07-09T07:18:34;26.00;99.90
569;DHT22;269;48.884;9.192;2023-07-09T07:21:02;26.10;99.90
569;DHT22;269;48.884;9.192;2023-07-09T07:23:30;26.30;99.90
569;DHT22;269;48.884;9.192;2023-07-09T07:25:58;26.40;99.90
569;DHT22;269;48.884;9.192;2023-07-09T07:28:25;26.50;99.90
569;DHT22;269;48.884;9.192;2023-07-09T07:30:59;26.60;99.90
569;DHT22;269;48.884;9.192;2023-07-09T07:33:27;26.70;99.90
569;DHT22;269;48.884;9.192;2023-07-09T07:35:54;26.90;99.90
569;DHT22;269;48.884;9.192;2023-07-09T07:38:21;27.00;99.90
569;DHT22;269;48.884;9.192;2023-07-09T07:40:49;27.20;99.90
569;DHT22;269;48.884;9.192;2023-07-09T07:43:16;27.30;99.90
569;DHT22;269;48.884;9.192;2023-07-09T07:45:44;27.70;99.90
569;DHT22;269;48.884;9.192;2023-07-09T07:48:12;28.10;99.90
569;DHT22;269;48.884;9.192;2023-07-09T07:50:39;28.40;99.90
569;DHT22;269;48.884;9.192;2023-07-09T07:53:07;28.50;99.90
569;DHT22;269;48.884;9.192;2023-07-09T07:55:35;28.50;99.90
569;DHT22;269;48.884;9.192;2023-07-09T07:58:04;28.40;99.90
569;DHT22;269;48.884;9.192;2023-07-09T08:00:31;28.50;99.90
569;DHT22;269;48.884;9.192;2023-07-09T08:02:58;28.50;99.90
569;DHT22;269;48.884;9.192;2023-07-09T08:05:26;28.70;99.90
569;DHT22;269;48.884;9.192;2023-07-09T08:07:53;28.90;99.90
569;DHT22;269;48.884;9.192;2023-07-09T08:10:20;29.00;99.90
569;DHT22;269;48.884;9.192;2023-07-09T08:12:47;28.90;99.90
569;DHT22;269;48.884;9.192;2023-07-09T08:15:16;29.00;99.90
569;DHT22;269;48.884;9.192;2023-07-09T08:17:44;29.10;99.80
569;DHT22;269;48.884;9.192;2023-07-09T08:20:11;29.20;99.70
569;DHT22;269;48.884;9.192;2023-07-09T08:22:38;29.40;99.20
569;DHT22;269;48.884;9.192;2023-07-09T08:25:06;29.50;99.30
569;DHT22;269;48.884;9.192;2023-07-09T08:27:33;29.70;98.40
569;DHT22;269;48.884;9.192;2023-07-09T08:30:01;29.90;98.60
569;DHT22;269;48.884;9.192;2023-07-09T08:32:29;30.10;96.30
569;DHT22;269;48.884;9.192;2023-07-09T08:34:56;30.10;96.60
569;DHT22;269;48.884;9.192;2023-07-09T08:37:23;30.20;95.70
569;DHT22;269;48.884;9.192;2023-07-09T08:39:50;30.10;95.40
569;DHT22;269;48.884;9.192;2023-07-09T08:42:23;30.00;95.30
569;DHT22;269;48.884;9.192;2023-07-09T08:45:03;30.00;94.80
569;DHT22;269;48.884;9.192;2023-07-09T08:47:43;30.20;93.80
569;DHT22;269;48.884;9.192;2023-07-09T08:50:15;30.40;94.70
569;DHT22;269;48.884;9.192;2023-07-09T08:52:44;30.40;93.60
569;DHT22;269;48.884;9.192;2023-07-09T08:55:15;30.50;93.20
569;DHT22;269;48.884;9.192;2023-07-09T08:57:44;30.60;93.90
569;DHT22;269;48.884;9.192;2023-07-09T09:00:16;30.70;92.80
569;DHT22;269;48.884;9.192;2023-07-09T09:02:50;30.80;92.60
569;DHT22;269;48.884;9.192;2023-07-09T09:05:20;30.90;92.10
569;DHT22;269;48.884;9.192;2023-07-09T09:07:51;31.30;91.80
569;DHT22;269;48.884;9.192;2023-07-09T09:10:26;31.40;92.20
569;DHT22;269;48.884;9.192;2023-07-09T09:13:09;31.50;90.50
569;DHT22;269;48.884;9.192;2023-07-09T09:15:39;31.40;90.20
569;DHT22;269;48.884;9.192;2023-07-09T09:18:20;31.50;90.20
569;DHT22;269;48.884;9.192;2023-07-09T09:20:53;31.80;90.50
569;DHT22;269;48.884;9.192;2023-07-09T09:23:22;32.00;90.50
569;DHT22;269;48.884;9.192;2023-07-09T09:25:53;32.10;89.50
569;DHT22;269;48.884;9.192;2023-07-09T09:28:22;32.20;87.70
569;DHT22;269;48.884;9.192;2023-07-09T09:30:52;32.30;85.50
569;DHT22;269;48.884;9.192;2023-07-09T09:33:20;32.40;87.20
569;DHT22;269;48.884;9.192;2023-07-09T09:35:47;32.50;85.90
569;DHT22;269;48.884;9.192;2023-07-09T09:38:17;32.40;85.20
569;DHT22;269;48.884;9.192;2023-07-09T09:40:44;32.50;83.30
569;DHT22;269;48.884;9.192;2023-07-09T09:43:13;32.60;81.20
569;DHT22;269;48.884;9.192;2023-07-09T09:45:43;32.50;79.90
569;DHT22;269;48.884;9.192;2023-07-09T09:48:15;32.50;79.80
569;DHT22;269;48.884;9.192;2023-07-09T09:50:45;32.60;80.70
569;DHT22;269;48.884;9.192;2023-07-09T09:53:19;32.80;79.40
569;DHT22;269;48.884;9.192;2023-07-09T09:55:48;33.00;76.70
569;DHT22;269;48.884;9.192;2023-07-09T09:58:17;33.20;76.70
569;DHT22;269;48.884;9.192;2023-07-09T10:00:49;33.40;74.50
569;DHT22;269;48.884;9.192;2023-07-09T10:03:18;33.70;73.80
569;DHT22;269;48.884;9.192;2023-07-09T10:05:51;34.00;74.10
569;DHT22;269;48.884;9.192;2023-07-09T10:08:27;34.20;71.80
569;DHT22;269;48.884;9.192;2023-07-09T10:11:05;34.50;72.20
569;DHT22;269;48.884;9.192;2023-07-09T10:13:36;34.80;71.10
569;DHT22;269;48.884;9.192;2023-07-09T10:16:07;35.10;71.10
569;DHT22;269;48.884;9.192;2023-07-09T10:18:47;35.50;68.90
569;DHT22;269;48.884;9.192;2023-07-09T10:21:25;36.10;67.30
569;DHT22;269;48.884;9.192;2023-07-09T10:24:09;36.40;63.60
569;DHT22;269;48.884;9.192;2023-07-09T10:26:41;36.40;61.00
569;DHT22;269;48.884;9.192;2023-07-09T10:29:27;36.50;60.70
569;DHT22;269;48.884;9.192;2023-07-09T10:32:04;36.80;58.00
569;DHT22;269;48.884;9.192;2023-07-09T10:34:42;37.10;58.10
569;DHT22;269;48.884;9.192;2023-07-09T10:37:27;37.40;56.60
569;DHT22;269;48.884;9.192;2023-07-09T10:39:59;37.40;56.40
569;DHT22;269;48.884;9.192;2023-07-09T10:42:32;37.80;56.30
569;DHT22;269;48.884;9.192;2023-07-09T10:45:03;38.20;56.80
569;DHT22;269;48.884;9.192;2023-07-09T10:47:35;38.60;55.00
569;DHT22;269;48.884;9.192;2023-07-09T10:50:11;38.50;52.00
569;DHT22;269;48.884;9.192;2023-07-09T10:52:46;38.10;53.10
569;DHT22;269;48.884;9.192;2023-07-09T10:55:16;37.50;54.20
569;DHT22;269;48.884;9.192;2023-07-09T10:57:48;37.50;54.00
569;DHT22;269;48.884;9.192;2023-07-09T11:00:18;37.70;51.20
569;DHT22;269;48.884;9.192;2023-07-09T11:02:49;37.70;51.10
569;DHT22;269;48.884;9.192;2023-07-09T11:05:18;37.40;51.70
569;DHT22;269;48.884;9.192;2023-07-09T11:07:52;37.20;52.30
569;DHT22;269;48.884;9.192;2023-07-09T11:10:27;37.50;52.10
569;DHT22;269;48.884;9.192;2023-07-09T11:13:04;37.50;50.30
569;DHT22;269;48.884;9.192;2023-07-09T11:15:36;37.80;50.20
569;DHT22;269;48.884;9.192;2023-07-09T11:18:05;37.90;48.70
569;DHT22;269;48.884;9.192;2023-07-09T11:20:35;38.20;46.50
569;DHT22;269;48.884;9.192;2023-07-09T11:23:06;38.10;45.80
569;DHT22;269;48.884;9.192;2023-07-09T11:25:42;38.20;47.30
569;DHT22;269;48.884;9.192;2023-07-09T11:28:09;38.50;47.80
569;DHT22;269;48.884;9.192;2023-07-09T11:30:48;38.80;48.10
569;DHT22;269;48.884;9.192;2023-07-09T11:33:17;39.10;47.00
569;DHT22;269;48.884;9.192;2023-07-09T11:35:47;39.20;47.50
569;DHT22;269;48.884;9.192;2023-07-09T11:38:18;39.30;46.70
569;DHT22;269;48.884;9.192;2023-07-09T11:40:52;39.40;46.50
569;DHT22;269;48.884;9.192;2023-07-09T11:43:28;39.30;47.10
569;DHT22;269;48.884;9.192;2023-07-09T11:45:57;39.00;47.20
569;DHT22;269;48.884;9.192;2023-07-09T11:48:28;38.70;45.80
569;DHT22;269;48.884;9.192;2023-07-09T11:50:58;38.80;46.60
569;DHT22;269;48.884;9.192;2023-07-09T11:53:31;39.20;45.30
569;DHT22;269;48.884;9.192;2023-07-09T11:56:01;39.60;44.90
569;DHT22;269;48.884;9.192;2023-07-09T11:58:28;40.00;44.90
569;DHT22;269;48.884;9.192;2023-07-09T12:00:57;39.70;44.60
569;DHT22;269;48.884;9.192;2023-07-09T12:03:27;40.20;44.90
569;DHT22;269;48.884;9.192;2023-07-09T12:05:56;40.50;44.80
569;DHT22;269;48.884;9.192;2023-07-09T12:08:29;40.40;45.30
569;DHT22;269;48.884;9.192;2023-07-09T12:10:57;41.10;41.40
569;DHT22;269;48.884;9.192;2023-07-09T12:13:24;41.40;41.50
569;DHT22;269;48.884;9.192;2023-07-09T12:15:51;41.70;40.90
569;DHT22;269;48.884;9.192;2023-07-09T12:18:18;42.00;40.30
569;DHT22;269;48.884;9.192;2023-07-09T12:20:49;42.40;41.80
569;DHT22;269;48.884;9.192;2023-07-09T12:23:25;41.90;40.50
569;DHT22;269;48.884;9.192;2023-07-09T12:25:54;42.70;39.90
569;DHT22;269;48.884;9.192;2023-07-09T12:28:22;42.90;40.10
569;DHT22;269;48.884;9.192;2023-07-09T12:30:51;43.10;40.10
569;DHT22;269;48.884;9.192;2023-07-09T12:33:19;43.30;39.10
569;DHT22;269;48.884;9.192;2023-07-09T12:35:49;43.10;39.60
569;DHT22;269;48.884;9.192;2023-07-09T12:38:19;42.80;38.80
569;DHT22;269;48.884;9.192;2023-07-09T12:40:48;43.10;38.60
569;DHT22;269;48.884;9.192;2023-07-09T12:43:19;42.90;38.20
569;DHT22;269;48.884;9.192;2023-07-09T12:45:48;42.80;37.80
569;DHT22;269;48.884;9.192;2023-07-09T12:48:15;42.90;38.60
569;DHT22;269;48.884;9.192;2023-07-09T12:50:49;42.80;38.10
569;DHT22;269;48.884;9.192;2023-07-09T12:53:19;42.90;37.00
569;DHT22;269;48.884;9.192;2023-07-09T12:55:48;42.70;37.40
569;DHT22;269;48.884;9.192;2023-07-09T12:58:19;43.20;37.00
569;DHT22;269;48.884;9.192;2023-07-09T13:00:51;43.60;36.40
569;DHT22;269;48.884;9.192;2023-07-09T13:03:21;43.80;37.10
569;DHT22;269;48.884;9.192;2023-07-09T13:05:52;43.80;37.30
569;DHT22;269;48.884;9.192;2023-07-09T13:08:20;44.30;35.90
569;DHT22;269;48.884;9.192;2023-07-09T13:10:47;44.20;34.40
569;DHT22;269;48.884;9.192;2023-07-09T13:13:19;43.60;34.80
569;DHT22;269;48.884;9.192;2023-07-09T13:15:49;43.60;35.40
569;DHT22;269;48.884;9.192;2023-07-09T13:18:17;43.50;35.70
569;DHT22;269;48.884;9.192;2023-07-09T13:20:45;43.40;34.70
569;DHT22;269;48.884;9.192;2023-07-09T13:23:16;42.60;35.30
569;DHT22;269;48.884;9.192;2023-07-09T13:25:43;42.30;34.90
569;DHT22;269;48.884;9.192;2023-07-09T13:28:15;42.10;34.20
569;DHT22;269;48.884;9.192;2023-07-09T13:30:44;42.30;34.60
569;DHT22;269;48.884;9.192;2023-07-09T13:33:11;42.00;34.40
569;DHT22;269;48.884;9.192;2023-07-09T13:35:38;41.50;34.50
569;DHT22;269;48.884;9.192;2023-07-09T13:38:12;41.10;34.70
569;DHT22;269;48.884;9.192;2023-07-09T13:40:40;40.80;33.60
569;DHT22;269;48.884;9.192;2023-07-09T13:43:11;40.10;35.10
569;DHT22;269;48.884;9.192;2023-07-09T13:45:39;39.60;36.80
569;DHT22;269;48.884;9.192;2023-07-09T13:48:14;38.80;36.80
569;DHT22;269;48.884;9.192;2023-07-09T13:50:42;38.60;37.00
569;DHT22;269;48.884;9.192;2023-07-09T13:53:13;38.10;38.70
569;DHT22;269;48.884;9.192;2023-07-09T13:55:41;38.30;40.00
569;DHT22;269;48.884;9.192;2023-07-09T13:58:09;38.10;37.80
569;DHT22;269;48.884;9.192;2023-07-09T14:00:36;38.20;38.10
569;DHT22;269;48.884;9.192;2023-07-09T14:03:12;38.00;38.40
569;DHT22;269;48.884;9.192;2023-07-09T14:05:40;37.70;38.80
569;DHT22;269;48.884;9.192;2023-07-09T14:08:08;37.50;39.10
569;DHT22;269;48.884;9.192;2023-07-09T14:10:36;37.20;39.00
569;DHT22;269;48.884;9.192;2023-07-09T14:13:03;36.80;38.80
569;DHT22;269;48.884;9.192;2023-07-09T14:15:31;36.80;41.10
569;DHT22;269;48.884;9.192;2023-07-09T14:17:58;36.70;39.90
569;DHT22;269;48.884;9.192;2023-07-09T14:20:26;36.60;39.10
569;DHT22;269;48.884;9.192;2023-07-09T14:22:54;36.50;40.00
569;DHT22;269;48.884;9.192;2023-07-09T14:25:23;36.50;39.70
569;DHT22;269;48.884;9.192;2023-07-09T14:27:52;36.90;39.70
569;DHT22;269;48.884;9.192;2023-07-09T14:30:21;37.40;39.20
569;DHT22;269;48.884;9.192;2023-07-09T14:32:49;37.40;39.60
569;DHT22;269;48.884;9.192;2023-07-09T14:35:19;37.60;39.40
569;DHT22;269;48.884;9.192;2023-07-09T14:37:49;37.40;39.40
569;DHT22;269;48.884;9.192;2023-07-09T14:40:19;37.50;40.00
569;DHT22;269;48.884;9.192;2023-07-09T14:42:48;37.60;39.40
569;DHT22;269;48.884;9.192;2023-07-09T14:45:19;37.60;40.10
569;DHT22;269;48.884;9.192;2023-07-09T14:47:48;37.80;39.40
569;DHT22;269;48.884;9.192;2023-07-09T14:50:16;38.00;39.50
569;DHT22;269;48.884;9.192;2023-07-09T14:52:45;38.00;39.40
569;DHT22;269;48.884;9.192;2023-07-09T14:55:15;38.20;39.10
569;DHT22;269;48.884;9.192;2023-07-09T14:57:43;38.10;39.20
569;DHT22;269;48.884;9.192;2023-07-09T15:00:14;37.60;39.50
569;DHT22;269;48.884;9.192;2023-07-09T15:02:43;37.30;39.80
569;DHT22;269;48.884;9.192;2023-07-09T15:05:15;37.10;39.40
569;DHT22;269;48.884;9.192;2023-07-09T15:07:43;37.00;39.70
569;DHT22;269;48.884;9.192;2023-07-09T15:10:16;36.70;39.80
569;DHT22;269;48.884;9.192;2023-07-09T15:12:45;36.60;39.40
569;DHT22;269;48.884;9.192;2023-07-09T15:15:20;36.50;40.20
569;DHT22;269;48.884;9.192;2023-07-09T15:17:47;36.60;39.30
569;DHT22;269;48.884;9.192;2023-07-09T15:20:16;36.70;40.50
569;DHT22;269;48.884;9.192;2023-07-09T15:22:44;36.90;41.60
569;DHT22;269;48.884;9.192;2023-07-09T15:25:18;37.10;39.00
569;DHT22;269;48.884;9.192;2023-07-09T15:27:46;37.10;39.00
569;DHT22;269;48.884;9.192;2023-07-09T15:30:15;37.30;40.60
569;DHT22;269;48.884;9.192;2023-07-09T15:32:44;37.20;38.80
569;DHT22;269;48.884;9.192;2023-07-09T15:35:12;37.30;40.90
569;DHT22;269;48.884;9.192;2023-07-09T15:37:39;37.30;41.80
569;DHT22;269;48.884;9.192;2023-07-09T15:40:18;37.30;41.80
569;DHT22;269;48.884;9.192;2023-07-09T15:42:48;37.20;41.80
569;DHT22;269;48.884;9.192;2023-07-09T15:45:17;37.00;42.00
569;DHT22;269;48.884;9.192;2023-07-09T15:47:46;36.90;42.70
569;DHT22;269;48.884;9.192;2023-07-09T15:50:18;36.60;42.50
569;DHT22;269;48.884;9.192;2023-07-09T15:52:47;36.60;42.80
569;DHT22;269;48.884;9.192;2023-07-09T15:55:15;36.50;44.40
569;DHT22;269;48.884;9.192;2023-07-09T15:57:44;36.30;44.00
569;DHT22;269;48.884;9.192;2023-07-09T16:00:17;36.20;44.00
569;DHT22;269;48.884;9.192;2023-07-09T16:02:45;36.20;44.40
569;DHT22;269;48.884;9.192;2023-07-09T16:05:19;36.20;44.40
569;DHT22;269;48.884;9.192;2023-07-09T16:07:46;36.20;45.00
569;DHT22;269;48.884;9.192;2023-07-09T16:10:14;36.00;44.40
569;DHT22;269;48.884;9.192;2023-07-09T16:12:41;36.00;45.30
569;DHT22;269;48.884;9.192;2023-07-09T16:15:13;35.90;45.00
569;DHT22;269;48.884;9.192;2023-07-09T16:17:41;35.90;45.30
569;DHT22;269;48.884;9.192;2023-07-09T16:20:09;35.90;45.90
569;DHT22;269;48.884;9.192;2023-07-09T16:22:36;35.70;45.60
569;DHT22;269;48.884;9.192;2023-07-09T16:25:12;35.50;45.00
569;DHT22;269;48.884;9.192;2023-07-09T16:27:41;35.50;45.70
569;DHT22;269;48.884;9.192;2023-07-09T16:30:14;35.40;45.70
569;DHT22;269;48.884;9.192;2023-07-09T16:32:41;35.30;45.40
569;DHT22;269;48.884;9.192;2023-07-09T16:35:11;35.20;45.10
569;DHT22;269;48.884;9.192;2023-07-09T16:37:39;35.20;45.40
569;DHT22;269;48.884;9.192;2023-07-09T16:40:13;35.20;45.50
569;DHT22;269;48.884;9.192;2023-07-09T16:42:40;35.20;46.00
569;DHT22;269;48.884;9.192;2023-07-09T16:45:08;35.20;46.10
569;DHT22;269;48.884;9.192;2023-07-09T16:47:37;35.20;45.00